Bookmark and Share
Track history (hours):
 

James Turecamo

More information available from US FCC via Universal Licensing System and Coast Guard Vessel Documentation Center.

Last reported at 2014-Apr-24 10:34 UTC. Time now 2014-Apr-24 11:22 UTC.
Position N 40°39' W 074°03'.

Length 27 m; draft 4.5 m.

Type: Tug. MMSI: 367073380.

NotesDate/timePositionNaut miles runAvg speedWind from/ knotsBaromVisibWave heightAir tempDewpointWater temp
2014-Apr-24 10:34N 40°39' W 074°03'3 3.5
2014-Apr-24 09:33N 40°38' W 074°08'0 0.0
2014-Apr-24 08:28N 40°38' W 074°08'0 0.0
2014-Apr-24 05:31N 40°38' W 074°08'0 0.0
2014-Apr-24 04:16N 40°38' W 074°08'0 0.6
2014-Apr-24 03:33N 40°39' W 074°08'3 2.6
2014-Apr-24 02:33N 40°41' W 074°08'3 2.2
2014-Apr-24 01:23N 40°38' W 074°08'0 0.0
2014-Apr-23 22:04N 40°38' W 074°08'0 0.0
2014-Apr-23 21:33N 40°38' W 074°08'0 0.0
2014-Apr-23 20:33N 40°38' W 074°08'0 0.0
2014-Apr-23 19:29N 40°38' W 074°08'2 1.8
2014-Apr-23 18:33N 40°39' W 074°06'2 1.6
2014-Apr-23 17:33N 40°38' W 074°08'0 0.0
2014-Apr-23 16:33N 40°38' W 074°08'0 0.0
2014-Apr-23 15:33N 40°38' W 074°08'0 0.0
2014-Apr-23 14:33N 40°38' W 074°08'0 0.0
2014-Apr-23 13:33N 40°38' W 074°08'0 0.0
2014-Apr-23 12:32N 40°38' W 074°08'0 0.0
2014-Apr-23 11:33N 40°38' W 074°08'0 0.0
2014-Apr-23 10:33N 40°38' W 074°08'0 0.0
2014-Apr-23 09:33N 40°38' W 074°08'0 0.0
2014-Apr-23 08:05N 40°38' W 074°08'0 0.0
2014-Apr-23 06:21N 40°38' W 074°08'0 0.0
2014-Apr-23 05:30N 40°38' W 074°08'0 0.0
2014-Apr-23 04:07N 40°38' W 074°08'0 0.0
2014-Apr-23 03:33N 40°38' W 074°08'0 0.0
2014-Apr-23 02:33N 40°38' W 074°08'0 0.0
2014-Apr-23 01:33N 40°38' W 074°08'6 6.4
2014-Apr-23 00:33N 40°41' W 074°00'1 0.6
2014-Apr-22 23:33N 40°41' W 074°01'1 0.7
2014-Apr-22 22:33N 40°41' W 074°00'6 5.5
2014-Apr-22 21:23N 40°38' W 074°08'0 0.0
2014-Apr-22 20:30N 40°38' W 074°08'0 0.0
2014-Apr-22 19:33N 40°38' W 074°08'0 0.0
2014-Apr-22 18:33N 40°38' W 074°08'0 0.0
2014-Apr-22 17:33N 40°38' W 074°08'0 0.0
2014-Apr-22 16:33N 40°38' W 074°08'0 0.0
2014-Apr-22 15:27N 40°38' W 074°08'0 0.0
2014-Apr-22 14:33N 40°38' W 074°08'0 0.0
2014-Apr-22 13:33N 40°38' W 074°08'0 0.0
2014-Apr-22 12:33N 40°38' W 074°08'0 0.1
2014-Apr-22 11:34N 40°39' W 074°08'9 6.6
2014-Apr-22 10:11N 40°47' W 074°05'3 4.4
2014-Apr-22 09:25N 40°50' W 074°02'2 2.6
2014-Apr-22 08:34N 40°48' W 074°04'6 3.0
2014-Apr-22 06:33N 40°43' W 074°07'3 2.8
2014-Apr-22 05:33N 40°40' W 074°08'2 1.7
2014-Apr-22 04:33N 40°38' W 074°08'0 0.0
2014-Apr-22 03:34N 40°38' W 074°08'0 0.0
2014-Apr-22 02:34N 40°38' W 074°08'0 0.0
2014-Apr-22 01:33N 40°38' W 074°08'0 0.0
2014-Apr-22 00:33N 40°38' W 074°08'0 0.0
2014-Apr-21 23:33N 40°38' W 074°08'0 0.0
2014-Apr-21 22:32N 40°38' W 074°08'0 0.0
2014-Apr-21 21:33N 40°38' W 074°08'9 9.1
2014-Apr-21 20:33N 40°44' W 073°58'1 0.6
2014-Apr-21 19:33N 40°44' W 073°58'4 4.3
2014-Apr-21 18:33N 40°41' W 074°02'3 3.2
2014-Apr-21 17:33N 40°39' W 074°05'1 0.8
2014-Apr-21 16:33N 40°39' W 074°06'1 1.3
2014-Apr-21 15:33N 40°38' W 074°08'0 0.0
2014-Apr-21 14:33N 40°38' W 074°08'0 0.0
2014-Apr-21 13:33N 40°38' W 074°08'0 0.0
2014-Apr-21 12:33N 40°39' W 074°08'0 0.1
2014-Apr-21 11:33N 40°38' W 074°08'0 0.0
2014-Apr-21 10:33N 40°38' W 074°08'0 0.0
2014-Apr-21 09:33N 40°38' W 074°08'0 0.0
2014-Apr-21 08:33N 40°38' W 074°08'0 0.0
2014-Apr-21 07:32N 40°38' W 074°08'0 0.0
2014-Apr-21 06:33N 40°38' W 074°08'0 0.0
2014-Apr-21 05:33N 40°38' W 074°08'0 0.0
2014-Apr-21 04:33N 40°38' W 074°08'0 0.0
2014-Apr-21 03:33N 40°38' W 074°08'0 0.0
2014-Apr-21 02:29N 40°38' W 074°08'0 0.0
2014-Apr-21 01:29N 40°38' W 074°08'0 0.0
2014-Apr-21 00:23N 40°38' W 074°08'0 0.0
2014-Apr-20 23:33N 40°38' W 074°08'0 0.0
2014-Apr-20 22:33N 40°38' W 074°08'0 0.0
2014-Apr-20 21:33N 40°38' W 074°08'0 0.0
2014-Apr-20 20:32N 40°38' W 074°08'0 0.0
2014-Apr-20 19:29N 40°38' W 074°08'0 0.0
2014-Apr-20 18:29N 40°38' W 074°08'2 2.3
2014-Apr-20 17:33N 40°39' W 074°05'1 1.3
2014-Apr-20 16:33N 40°39' W 074°07'1 0.9
2014-Apr-20 15:33N 40°38' W 074°08'0 0.0
2014-Apr-20 14:33N 40°38' W 074°08'0 0.0
2014-Apr-20 13:33N 40°38' W 074°08'0 0.0
2014-Apr-20 12:33N 40°38' W 074°08'1 1.1
2014-Apr-20 11:33N 40°39' W 074°06'0 0.1
2014-Apr-20 10:29N 40°39' W 074°07'1 1.0
2014-Apr-20 09:33N 40°38' W 074°08'0 0.0
2014-Apr-20 08:33N 40°38' W 074°08'0 0.0
2014-Apr-20 07:33N 40°38' W 074°08'0 0.0
2014-Apr-20 06:33N 40°38' W 074°08'0 0.0
2014-Apr-20 05:33N 40°38' W 074°08'0 0.0
2014-Apr-20 04:33N 40°38' W 074°08'0 0.0
2014-Apr-20 03:33N 40°38' W 074°08'0 0.0
2014-Apr-20 02:33N 40°38' W 074°08'0 0.0
2014-Apr-20 01:33N 40°38' W 074°08'0 0.0
2014-Apr-20 00:33N 40°38' W 074°08'0 0.0
2014-Apr-19 23:33N 40°38' W 074°08'0 0.0
2014-Apr-19 22:33N 40°38' W 074°08'0 0.0
2014-Apr-19 21:33N 40°38' W 074°08'0 0.0
2014-Apr-19 20:33N 40°38' W 074°08'0 0.0
2014-Apr-19 19:33N 40°38' W 074°08'0 0.0
2014-Apr-19 18:33N 40°38' W 074°08'0 0.0
2014-Apr-19 17:33N 40°38' W 074°08'0 0.0
2014-Apr-19 16:33N 40°38' W 074°08'0 0.0
2014-Apr-19 15:33N 40°38' W 074°08'2 1.5
2014-Apr-19 14:29N 40°39' W 074°06'1 0.7
2014-Apr-19 13:33N 40°39' W 074°05'2 2.2
2014-Apr-19 12:33N 40°38' W 074°08'0 0.0
2014-Apr-19 11:33N 40°38' W 074°08'0 0.0
2014-Apr-19 10:33N 40°38' W 074°08'0 0.0
2014-Apr-19 09:31N 40°38' W 074°08'1 1.4
2014-Apr-19 08:34N 40°40' W 074°09'6 4.8
2014-Apr-19 07:20N 40°45' W 074°05'5 6.5
2014-Apr-19 06:32N 40°49' W 074°02'3 2.1
2014-Apr-19 05:11N 40°47' W 074°05'3 4.0
2014-Apr-19 04:33N 40°45' W 074°06'2 2.5
2014-Apr-19 03:33N 40°43' W 074°07'4 3.8
2014-Apr-19 02:33N 40°39' W 074°09'1 1.1
2014-Apr-19 01:33N 40°38' W 074°08'0 0.0
2014-Apr-19 00:33N 40°38' W 074°08'0 0.0
2014-Apr-18 23:33N 40°38' W 074°08'0 0.0
2014-Apr-18 22:33N 40°38' W 074°08'0 0.0
2014-Apr-18 21:33N 40°38' W 074°08'0 0.0
2014-Apr-18 20:34N 40°38' W 074°08'0 0.0
2014-Apr-18 19:33N 40°38' W 074°08'0 0.0
2014-Apr-18 18:33N 40°38' W 074°08'0 0.0
2014-Apr-18 17:33N 40°38' W 074°08'0 0.0
2014-Apr-18 16:33N 40°38' W 074°08'0 0.0
2014-Apr-18 15:33N 40°38' W 074°08'2 2.2
2014-Apr-18 14:34N 40°39' W 074°05'1 1.4
2014-Apr-18 13:33N 40°39' W 074°03'3 3.2
2014-Apr-18 12:33N 40°38' W 074°08'0 0.0
2014-Apr-18 11:33N 40°38' W 074°08'0 0.0
2014-Apr-18 10:33N 40°38' W 074°08'0 0.0
2014-Apr-18 09:33N 40°38' W 074°08'0 0.0
2014-Apr-18 08:33N 40°38' W 074°08'0 0.0
2014-Apr-18 07:33N 40°38' W 074°08'0 0.2
2014-Apr-18 06:33N 40°39' W 074°08'4 3.6
2014-Apr-18 05:33N 40°37' W 074°03'3 2.9
2014-Apr-18 04:33N 40°40' W 074°04'0 0.0
2014-Apr-18 03:33N 40°40' W 074°04'0 0.0
2014-Apr-18 02:33N 40°40' W 074°04'0 0.3
2014-Apr-18 01:33N 40°40' W 074°04'0 0.2
2014-Apr-18 00:33N 40°40' W 074°04'0 0.0
2014-Apr-17 23:33N 40°40' W 074°04'1 1.2
2014-Apr-17 22:33N 40°40' W 074°03'4 3.5
2014-Apr-17 21:33N 40°39' W 074°07'1 0.8
2014-Apr-17 20:32N 40°38' W 074°08'0 0.0
2014-Apr-17 19:32N 40°38' W 074°08'0 0.0
2014-Apr-17 18:33N 40°38' W 074°08'0 0.0
2014-Apr-17 17:32N 40°38' W 074°08'0 0.0
2014-Apr-17 16:33N 40°38' W 074°08'0 0.0
2014-Apr-17 15:33N 40°38' W 074°08'0 0.0
2014-Apr-17 14:33N 40°38' W 074°08'0 0.0
2014-Apr-17 13:33N 40°38' W 074°08'0 0.0
2014-Apr-17 12:33N 40°38' W 074°08'0 0.0
2014-Apr-17 11:33N 40°38' W 074°08'0 0.1
2014-Apr-17 09:31N 40°39' W 074°08'4 3.9
2014-Apr-17 08:34N 40°38' W 074°03'4 3.6
2014-Apr-17 07:33N 40°38' W 074°08'0 0.0
2014-Apr-17 06:33N 40°38' W 074°08'0 0.0
2014-Apr-17 05:33N 40°38' W 074°08'0 0.0
2014-Apr-17 04:30N 40°38' W 074°08'0 0.0
2014-Apr-17 03:33N 40°38' W 074°08'0 0.0
2014-Apr-17 02:33N 40°38' W 074°08'0 0.0
2014-Apr-17 01:33N 40°38' W 074°08'0 0.0
2014-Apr-17 00:33N 40°38' W 074°08'0 0.0
2014-Apr-16 23:34N 40°38' W 074°08'0 0.0
2014-Apr-16 22:32N 40°38' W 074°08'0 0.0
2014-Apr-16 21:33N 40°38' W 074°08'2 0.8
2014-Apr-16 19:30N 40°39' W 074°06'2 1.7
2014-Apr-16 18:34N 40°38' W 074°08'0 0.0
2014-Apr-16 17:33N 40°38' W 074°08'0 0.0
2014-Apr-16 16:33N 40°38' W 074°08'0 0.0
2014-Apr-16 12:03N 40°38' W 074°08'0 0.0
2014-Apr-16 11:33N 40°38' W 074°08'0 0.0
2014-Apr-16 10:34N 40°38' W 074°08'0 0.0
2014-Apr-16 09:34N 40°38' W 074°08'0 0.0
2014-Apr-16 08:33N 40°38' W 074°08'0 0.0
2014-Apr-16 07:33N 40°38' W 074°08'0 0.0
2014-Apr-16 06:34N 40°38' W 074°08'0 0.0
2014-Apr-16 05:33N 40°38' W 074°08'0 0.0
2014-Apr-16 04:34N 40°38' W 074°08'0 0.0
2014-Apr-16 03:33N 40°38' W 074°08'0 0.0
2014-Apr-16 02:34N 40°38' W 074°08'0 0.0
2014-Apr-16 01:34N 40°38' W 074°08'0 0.0
2014-Apr-16 00:34N 40°38' W 074°08'0 0.0
2014-Apr-15 23:34N 40°38' W 074°08'0 0.0
2014-Apr-15 22:34N 40°38' W 074°08'0 0.0
2014-Apr-15 21:34N 40°38' W 074°08'0 0.0
2014-Apr-15 20:33N 40°38' W 074°08'0 0.1
2014-Apr-15 19:33N 40°38' W 074°08'0 0.1
2014-Apr-15 18:33N 40°38' W 074°08'0 0.0
2014-Apr-15 17:33N 40°38' W 074°08'0 0.0
2014-Apr-15 16:34N 40°38' W 074°08'0 0.0
2014-Apr-15 15:33N 40°38' W 074°08'1 0.6
2014-Apr-15 14:33N 40°39' W 074°09'5 2.3
2014-Apr-15 12:32N 40°35' W 074°13'5 2.5
2014-Apr-15 10:34N 40°38' W 074°08'0 0.0
2014-Apr-15 09:34N 40°38' W 074°08'0 0.0
2014-Apr-15 08:34N 40°38' W 074°08'0 0.0
2014-Apr-15 06:34N 40°38' W 074°08'0 0.0
2014-Apr-15 05:34N 40°38' W 074°08'0 0.0
2014-Apr-15 03:34N 40°38' W 074°08'0 0.0
2014-Apr-15 02:34N 40°38' W 074°08'0 0.0
2014-Apr-15 01:34N 40°38' W 074°08'0 0.0
2014-Apr-15 00:33N 40°38' W 074°08'0 0.0
2014-Apr-14 23:33N 40°38' W 074°08'0 0.0
2014-Apr-14 22:32N 40°38' W 074°08'2 2.4
2014-Apr-14 21:34N 40°39' W 074°05'2 2.3
2014-Apr-14 20:33N 40°38' W 074°08'0 0.0
2014-Apr-14 19:33N 40°38' W 074°08'0 0.0
2014-Apr-14 16:30N 40°38' W 074°08'0 0.0
2014-Apr-14 14:32N 40°38' W 074°08'0 0.0
2014-Apr-14 13:32N 40°38' W 074°08'2 1.3
2014-Apr-14 11:34N 40°41' W 074°09'  

Dump ship's entire track history

sailing weather and tide predictions

James Turecamo — WDC7565 — position and weather